createdAt,value
2022-11-09T00:01:05.759Z,8.71
2022-11-09T00:03:32.693Z,8.39
2022-11-09T00:06:00.564Z,8.45
2022-11-09T00:08:27.604Z,8.42
2022-11-09T00:10:54.425Z,8.39
2022-11-09T00:13:22.127Z,8.30
2022-11-09T00:15:49.423Z,8.39
2022-11-09T00:18:16.124Z,8.34
2022-11-09T00:20:47.702Z,8.15
2022-11-09T00:23:15.416Z,8.35
2022-11-09T00:25:42.112Z,8.38
2022-11-09T00:28:08.910Z,8.31
2022-11-09T00:30:35.668Z,8.25
2022-11-09T00:33:02.354Z,8.27
2022-11-09T00:35:28.990Z,8.35
2022-11-09T00:37:56.002Z,8.40
2022-11-09T00:40:22.864Z,8.38
2022-11-09T00:42:49.469Z,8.46
2022-11-09T00:45:16.562Z,8.41
2022-11-09T00:47:44.548Z,8.44
2022-11-09T00:50:11.265Z,7.95
2022-11-09T00:52:38.433Z,8.40
2022-11-09T00:55:05.636Z,8.40
2022-11-09T00:57:32.349Z,8.30
2022-11-09T00:59:59.006Z,8.41
2022-11-09T01:02:25.777Z,8.49
2022-11-09T01:04:52.492Z,8.51
2022-11-09T01:07:19.490Z,8.59
2022-11-09T01:09:46.369Z,8.66
2022-11-09T01:12:13.050Z,8.47
2022-11-09T01:14:39.691Z,8.44
2022-11-09T01:17:06.512Z,8.50
2022-11-09T01:19:33.141Z,8.53
2022-11-09T01:21:59.788Z,8.55
2022-11-09T01:24:26.442Z,8.62
2022-11-09T01:26:53.037Z,8.53
2022-11-09T01:29:19.692Z,8.62
2022-11-09T01:31:46.837Z,8.52
2022-11-09T01:34:13.497Z,8.60
2022-11-09T01:36:40.052Z,8.47
2022-11-09T01:39:06.904Z,8.56
2022-11-09T01:41:33.581Z,8.55
2022-11-09T01:44:18.480Z,8.61
2022-11-09T01:46:59.846Z,8.63
2022-11-09T01:49:42.006Z,8.58
2022-11-09T01:52:16.764Z,8.53
2022-11-09T01:54:49.114Z,8.66
2022-11-09T01:57:20.784Z,8.76
2022-11-09T02:00:02.874Z,8.70
2022-11-09T02:02:29.589Z,8.72
2022-11-09T02:05:01.657Z,8.83
2022-11-09T02:07:28.994Z,8.89
2022-11-09T02:10:13.572Z,8.92
2022-11-09T02:12:41.130Z,8.89
2022-11-09T02:15:10.506Z,8.84
2022-11-09T02:17:37.746Z,8.82
2022-11-09T02:20:10.920Z,8.73
2022-11-09T02:22:37.518Z,8.76
2022-11-09T02:25:05.077Z,8.77
2022-11-09T02:27:32.296Z,8.70
2022-11-09T02:30:00.664Z,8.72
2022-11-09T02:32:29.902Z,8.69
2022-11-09T02:34:57.094Z,8.61
2022-11-09T02:37:34.608Z,8.79
2022-11-09T02:40:04.650Z,8.74
2022-11-09T02:42:31.907Z,8.77
2022-11-09T02:45:00.025Z,8.85
2022-11-09T02:47:27.193Z,8.86
2022-11-09T02:49:54.079Z,8.83
2022-11-09T02:52:20.742Z,8.78
2022-11-09T02:54:47.802Z,8.90
2022-11-09T02:57:14.457Z,8.90
2022-11-09T02:59:41.140Z,8.77
2022-11-09T03:02:07.764Z,8.85
2022-11-09T03:04:34.513Z,8.57
2022-11-09T03:07:01.327Z,8.55
2022-11-09T03:09:27.981Z,8.62
2022-11-09T03:11:54.635Z,8.53
2022-11-09T03:14:21.373Z,8.48
2022-11-09T03:16:50.802Z,8.45
2022-11-09T03:19:17.790Z,8.29
2022-11-09T03:21:44.411Z,8.27
2022-11-09T03:24:11.051Z,8.44
2022-11-09T03:26:37.716Z,8.36
2022-11-09T03:29:04.323Z,8.36
2022-11-09T03:31:30.980Z,8.37
2022-11-09T03:33:57.620Z,8.30
2022-11-09T03:36:24.402Z,8.47
2022-11-09T03:38:51.090Z,8.37
2022-11-09T03:41:18.274Z,8.38
2022-11-09T03:43:44.828Z,8.29
2022-11-09T03:46:11.458Z,8.30
2022-11-09T03:48:38.099Z,8.31
2022-11-09T03:51:04.755Z,8.23
2022-11-09T03:53:31.583Z,8.28
2022-11-09T03:55:58.416Z,8.32
2022-11-09T03:58:25.024Z,8.26
2022-11-09T04:00:51.690Z,8.25
2022-11-09T04:03:18.504Z,8.22
2022-11-09T04:05:45.339Z,8.23
2022-11-09T04:08:12.182Z,8.04
2022-11-09T04:10:39.126Z,8.11
2022-11-09T04:13:05.849Z,8.11
2022-11-09T04:15:32.497Z,8.01
2022-11-09T04:18:01.106Z,8.08
2022-11-09T04:20:29.684Z,8.13
2022-11-09T04:22:59.004Z,8.06
2022-11-09T04:25:26.411Z,7.95
2022-11-09T04:27:57.873Z,7.83
2022-11-09T04:30:28.209Z,7.62
2022-11-09T04:32:56.584Z,7.79
2022-11-09T04:35:25.739Z,7.67
2022-11-09T04:38:00.859Z,7.71
2022-11-09T04:40:29.876Z,7.66
2022-11-09T04:42:59.775Z,7.58
2022-11-09T04:45:27.148Z,7.40
2022-11-09T04:48:04.504Z,7.36
2022-11-09T04:50:31.857Z,7.27
2022-11-09T04:53:10.568Z,7.21
2022-11-09T04:55:37.929Z,7.26
2022-11-09T04:58:05.067Z,7.22
2022-11-09T05:00:31.767Z,7.16
2022-11-09T05:03:03.794Z,7.12
2022-11-09T05:05:30.872Z,7.21
2022-11-09T05:07:57.429Z,7.19
2022-11-09T05:10:24.257Z,7.29
2022-11-09T05:12:50.985Z,7.31
2022-11-09T05:15:17.711Z,7.37
2022-11-09T05:17:44.631Z,7.35
2022-11-09T05:20:11.739Z,7.30
2022-11-09T05:22:59.712Z,7.47
2022-11-09T05:25:26.292Z,7.55
2022-11-09T05:27:53.227Z,7.66
2022-11-09T05:30:20.083Z,7.77
2022-11-09T05:32:46.712Z,7.80
2022-11-09T05:35:13.560Z,7.95
2022-11-09T05:37:40.567Z,8.02
2022-11-09T05:40:09.285Z,8.14
2022-11-09T05:42:39.658Z,8.08
2022-11-09T05:45:35.472Z,8.32
2022-11-09T05:47:54.117Z,8.38
2022-11-09T05:50:20.853Z,8.50
2022-11-09T05:52:47.545Z,8.68
2022-11-09T05:55:14.174Z,8.63
2022-11-09T05:57:40.792Z,8.74
2022-11-09T06:00:10.939Z,8.71
2022-11-09T06:02:38.018Z,8.72
2022-11-09T06:05:04.970Z,8.88
2022-11-09T06:07:32.774Z,8.89
2022-11-09T06:09:59.433Z,8.99
2022-11-09T06:12:26.056Z,9.07
2022-11-09T06:14:52.876Z,9.14
2022-11-09T06:17:19.724Z,8.94
2022-11-09T06:19:46.334Z,9.00
2022-11-09T06:22:12.952Z,8.97
2022-11-09T06:24:39.796Z,9.23
2022-11-09T06:27:06.796Z,9.43
2022-11-09T06:29:33.769Z,9.34
2022-11-09T06:32:01.184Z,9.42
2022-11-09T06:34:27.839Z,9.56
2022-11-09T06:36:54.484Z,9.58
2022-11-09T06:39:21.289Z,9.75
2022-11-09T06:41:47.931Z,9.84
2022-11-09T06:44:15.267Z,9.82
2022-11-09T06:46:42.209Z,9.95
2022-11-09T06:49:08.922Z,10.13
2022-11-09T06:51:35.656Z,10.25
2022-11-09T06:54:02.488Z,10.50
2022-11-09T06:56:29.141Z,10.66
2022-11-09T06:58:55.809Z,10.83
2022-11-09T07:01:28.262Z,11.06
2022-11-09T07:03:55.142Z,11.16
2022-11-09T07:06:21.846Z,11.43
2022-11-09T07:08:48.487Z,11.39
2022-11-09T07:11:19.747Z,11.36
2022-11-09T07:13:53.447Z,11.68
2022-11-09T07:16:22.945Z,11.70
2022-11-09T07:18:49.643Z,11.98
2022-11-09T07:21:16.246Z,12.10
2022-11-09T07:23:43.476Z,12.21
2022-11-09T07:26:10.348Z,12.31
2022-11-09T07:28:37.025Z,12.48
2022-11-09T07:31:04.035Z,12.56
2022-11-09T07:33:32.747Z,12.52
2022-11-09T07:36:01.307Z,12.70
2022-11-09T07:38:31.464Z,13.07
2022-11-09T07:41:00.433Z,13.07
2022-11-09T07:43:27.756Z,13.21
2022-11-09T07:45:54.617Z,13.32
2022-11-09T07:48:21.464Z,13.29
2022-11-09T07:50:48.593Z,13.09
2022-11-09T07:53:16.146Z,13.12
2022-11-09T07:55:42.913Z,13.19
2022-11-09T07:58:13.399Z,13.31
2022-11-09T08:00:41.420Z,13.30
2022-11-09T08:03:08.235Z,13.49
2022-11-09T08:05:35.726Z,13.63
2022-11-09T08:08:05.194Z,13.76
2022-11-09T08:10:33.238Z,13.75
2022-11-09T08:13:02.693Z,13.94
2022-11-09T08:15:30.034Z,14.12
2022-11-09T08:18:05.216Z,14.03
2022-11-09T08:20:32.228Z,14.19
2022-11-09T08:23:03.780Z,14.38
2022-11-09T08:25:35.925Z,14.59
2022-11-09T08:28:03.724Z,14.77
2022-11-09T08:30:31.413Z,15.02
2022-11-09T08:33:02.952Z,15.22
2022-11-09T08:35:30.266Z,15.43
2022-11-09T08:38:00.458Z,15.26
2022-11-09T08:40:27.339Z,15.36
2022-11-09T08:42:54.249Z,15.34
2022-11-09T08:45:21.002Z,15.11
2022-11-09T08:47:48.404Z,15.24
2022-11-09T08:50:15.577Z,15.49
2022-11-09T08:52:42.865Z,15.78
2022-11-09T08:55:09.831Z,15.62
2022-11-09T08:57:36.558Z,15.79
2022-11-09T09:00:04.723Z,15.44
2022-11-09T09:02:31.662Z,15.26
2022-11-09T09:04:58.333Z,15.07
2022-11-09T09:07:25.088Z,14.90
2022-11-09T09:09:51.822Z,14.89
2022-11-09T09:12:19.005Z,14.70
2022-11-09T09:14:45.711Z,14.61
2022-11-09T09:17:12.566Z,14.98
2022-11-09T09:19:39.230Z,15.26
2022-11-09T09:22:06.074Z,15.43
2022-11-09T09:24:32.829Z,15.43
2022-11-09T09:26:59.514Z,15.61
2022-11-09T09:29:26.670Z,15.42
2022-11-09T09:31:53.526Z,15.59
2022-11-09T09:34:20.150Z,15.66
2022-11-09T09:36:48.402Z,15.61
2022-11-09T09:39:15.656Z,15.70
2022-11-09T09:41:55.809Z,15.78
2022-11-09T09:44:29.214Z,15.68
2022-11-09T09:47:00.320Z,15.21
2022-11-09T09:49:31.416Z,14.80
2022-11-09T09:52:36.321Z,15.01
2022-11-09T09:55:33.052Z,15.30
2022-11-09T09:58:07.820Z,15.57
2022-11-09T10:00:36.310Z,15.51
2022-11-09T10:03:03.608Z,15.42
2022-11-09T10:05:51.528Z,15.29
2022-11-09T10:08:54.986Z,15.69
2022-11-09T10:12:04.018Z,15.77
2022-11-09T10:15:15.791Z,15.61
2022-11-09T10:18:08.036Z,15.70
2022-11-09T10:20:53.261Z,15.74
2022-11-09T10:23:40.173Z,15.96
2022-11-09T10:26:21.585Z,16.32
2022-11-09T10:29:15.090Z,16.32
2022-11-09T10:31:46.345Z,16.34
2022-11-09T10:34:35.450Z,16.07
2022-11-09T10:37:10.702Z,15.77
2022-11-09T10:39:47.521Z,15.63
2022-11-09T10:42:14.199Z,15.56
2022-11-09T10:44:41.312Z,15.78
2022-11-09T10:47:11.411Z,16.06
2022-11-09T10:49:39.364Z,16.09
2022-11-09T10:52:27.082Z,16.17
2022-11-09T10:54:53.869Z,15.95
2022-11-09T10:57:23.493Z,15.88
2022-11-09T11:00:01.102Z,15.96
2022-11-09T11:02:29.030Z,15.85
2022-11-09T11:05:07.697Z,16.15
2022-11-09T11:07:35.816Z,15.99
2022-11-09T11:10:18.390Z,16.50
2022-11-09T11:12:51.974Z,16.59
2022-11-09T11:15:32.810Z,16.62
2022-11-09T11:18:13.077Z,16.60
2022-11-09T11:20:39.732Z,16.73
2022-11-09T11:23:09.236Z,17.09
2022-11-09T11:25:54.020Z,17.07
2022-11-09T11:28:56.487Z,17.54
2022-11-09T11:31:23.367Z,17.82
2022-11-09T11:33:50.095Z,17.76
2022-11-09T11:36:58.245Z,17.91
2022-11-09T11:39:36.635Z,17.43
2022-11-09T11:42:24.638Z,17.27
2022-11-09T11:45:40.145Z,17.33
2022-11-09T11:48:26.510Z,17.24
2022-11-09T11:51:18.282Z,17.30
2022-11-09T11:54:15.108Z,17.38
2022-11-09T11:57:02.031Z,17.38
2022-11-09T11:59:37.814Z,17.33
2022-11-09T12:02:32.337Z,17.45
2022-11-09T12:05:46.634Z,17.54
2022-11-09T12:08:25.653Z,17.31
2022-11-09T12:11:01.322Z,17.42
2022-11-09T12:13:48.433Z,17.28
2022-11-09T12:16:26.089Z,17.21
2022-11-09T12:19:35.558Z,17.21
2022-11-09T12:22:25.135Z,17.02
2022-11-09T12:24:58.301Z,17.17
2022-11-09T12:27:54.069Z,17.23
2022-11-09T12:30:24.053Z,17.13
2022-11-09T12:33:15.865Z,17.31
2022-11-09T12:35:55.815Z,17.20
2022-11-09T12:38:36.662Z,17.29
2022-11-09T12:41:16.305Z,17.38
2022-11-09T12:43:52.834Z,17.41
2022-11-09T12:46:23.612Z,17.56
2022-11-09T12:48:50.318Z,17.35
2022-11-09T12:51:17.704Z,17.23
2022-11-09T12:53:44.506Z,17.10
2022-11-09T12:56:24.856Z,17.33
2022-11-09T12:58:51.791Z,17.58
2022-11-09T13:01:33.715Z,17.86
2022-11-09T13:04:03.158Z,18.05
2022-11-09T13:06:32.267Z,18.02
2022-11-09T13:09:18.512Z,18.08
2022-11-09T13:11:48.415Z,17.93
2022-11-09T13:14:29.242Z,18.04
2022-11-09T13:17:01.497Z,17.89
2022-11-09T13:19:34.065Z,17.86
2022-11-09T13:22:20.690Z,17.95
2022-11-09T13:24:54.378Z,18.04
2022-11-09T13:27:32.734Z,18.05
2022-11-09T13:30:01.010Z,17.89
2022-11-09T13:32:29.979Z,17.55
2022-11-09T13:34:58.418Z,17.25
2022-11-09T13:37:40.725Z,17.21
2022-11-09T13:40:32.201Z,17.00
2022-11-09T13:43:04.098Z,17.16
2022-11-09T13:45:39.146Z,17.31
2022-11-09T13:48:06.985Z,17.33
2022-11-09T13:50:35.030Z,17.45
2022-11-09T13:53:02.570Z,17.54
2022-11-09T13:55:47.306Z,17.65
2022-11-09T13:58:28.891Z,17.74
2022-11-09T14:00:55.517Z,17.83
2022-11-09T14:03:26.018Z,17.82
2022-11-09T14:05:55.742Z,17.79
2022-11-09T14:08:24.441Z,17.69
2022-11-09T14:11:16.146Z,17.60
2022-11-09T14:14:03.137Z,17.55
2022-11-09T14:16:39.058Z,17.51
2022-11-09T14:19:17.870Z,17.49
2022-11-09T14:21:47.838Z,17.29
2022-11-09T14:24:32.727Z,17.17
2022-11-09T14:27:13.444Z,16.86
2022-11-09T14:29:57.635Z,16.67
2022-11-09T14:32:36.213Z,16.48
2022-11-09T14:35:14.749Z,16.20
2022-11-09T14:37:45.269Z,16.17
2022-11-09T14:40:21.719Z,16.29
2022-11-09T14:42:51.405Z,16.35
2022-11-09T14:45:18.327Z,16.30
2022-11-09T14:47:47.408Z,15.94
2022-11-09T14:50:24.106Z,15.58
2022-11-09T14:52:52.937Z,15.41
2022-11-09T14:55:21.530Z,15.25
2022-11-09T14:57:50.262Z,15.05
2022-11-09T15:00:38.740Z,15.00
2022-11-09T15:03:26.131Z,14.86
2022-11-09T15:06:14.926Z,14.73
2022-11-09T15:09:00.345Z,14.46
2022-11-09T15:11:39.305Z,14.52
2022-11-09T15:14:19.010Z,14.39
2022-11-09T15:16:47.967Z,14.27
2022-11-09T15:19:30.014Z,14.07
2022-11-09T15:21:56.877Z,14.05
2022-11-09T15:24:25.866Z,14.17
2022-11-09T15:26:53.755Z,14.09
2022-11-09T15:29:35.617Z,14.02
2022-11-09T15:32:11.683Z,13.89
2022-11-09T15:34:59.383Z,13.82
2022-11-09T15:37:47.444Z,13.84
2022-11-09T15:40:17.200Z,13.79
2022-11-09T15:42:46.376Z,13.75
2022-11-09T15:45:18.461Z,13.66
2022-11-09T15:47:53.879Z,13.43
2022-11-09T15:50:24.348Z,13.39
2022-11-09T15:52:52.020Z,13.25
2022-11-09T15:55:23.362Z,13.21
2022-11-09T15:57:52.501Z,13.10
2022-11-09T16:00:21.482Z,12.97
2022-11-09T16:02:48.755Z,13.01
2022-11-09T16:05:16.038Z,12.78
2022-11-09T16:07:50.171Z,12.72
2022-11-09T16:10:20.533Z,12.63
2022-11-09T16:12:47.609Z,12.47
2022-11-09T16:15:14.391Z,12.44
2022-11-09T16:17:40.994Z,12.26
2022-11-09T16:20:08.186Z,12.18
2022-11-09T16:22:35.061Z,12.12
2022-11-09T16:25:01.951Z,12.10
2022-11-09T16:27:49.200Z,12.06
2022-11-09T16:30:15.861Z,12.01
2022-11-09T16:32:42.765Z,11.99
2022-11-09T16:35:27.767Z,11.97
2022-11-09T16:37:55.475Z,11.92
2022-11-09T16:40:22.958Z,11.91
2022-11-09T16:42:51.637Z,11.93
2022-11-09T16:45:18.300Z,11.77
2022-11-09T16:47:56.402Z,11.91
2022-11-09T16:50:24.592Z,11.88
2022-11-09T16:52:51.385Z,11.90
2022-11-09T16:55:18.005Z,11.88
2022-11-09T16:57:46.316Z,11.83
2022-11-09T17:00:13.834Z,11.68
2022-11-09T17:02:40.389Z,11.77
2022-11-09T17:05:07.390Z,11.69
2022-11-09T17:07:42.124Z,11.49
2022-11-09T17:10:09.689Z,11.49
2022-11-09T17:12:36.582Z,11.54
2022-11-09T17:15:03.310Z,11.44
2022-11-09T17:17:29.954Z,11.39
2022-11-09T17:19:56.695Z,11.33
2022-11-09T17:22:23.391Z,11.28
2022-11-09T17:24:50.225Z,11.13
2022-11-09T17:27:16.966Z,10.92
2022-11-09T17:29:43.556Z,10.84
2022-11-09T17:32:10.656Z,10.77
2022-11-09T17:34:37.557Z,10.80
2022-11-09T17:37:05.553Z,10.78
2022-11-09T17:39:33.008Z,10.81
2022-11-09T17:41:59.785Z,10.77
2022-11-09T17:44:27.019Z,10.75
2022-11-09T17:46:53.834Z,10.70
2022-11-09T17:49:20.398Z,10.65
2022-11-09T17:51:47.101Z,10.61
2022-11-09T17:54:15.051Z,10.50
2022-11-09T17:56:41.999Z,10.32
2022-11-09T17:59:09.186Z,10.23
2022-11-09T18:01:41.042Z,9.97
2022-11-09T18:04:10.723Z,10.08
2022-11-09T18:06:38.824Z,9.92
2022-11-09T18:11:53.066Z,9.68
2022-11-09T18:14:20.029Z,9.76
2022-11-09T18:16:46.730Z,9.69
2022-11-09T18:19:13.485Z,9.77
2022-11-09T18:21:40.177Z,9.68
2022-11-09T18:24:07.374Z,9.67
2022-11-09T18:26:34.380Z,9.65
2022-11-09T18:29:01.270Z,9.60
2022-11-09T18:31:28.053Z,9.71
2022-11-09T18:34:59.684Z,9.59
2022-11-09T18:38:20.340Z,9.64
2022-11-09T18:41:01.512Z,9.62
2022-11-09T18:43:28.325Z,9.61
2022-11-09T18:46:02.993Z,9.44
2022-11-09T18:48:30.372Z,9.45
2022-11-09T18:50:58.745Z,9.40
2022-11-09T18:53:33.625Z,9.44
2022-11-09T18:56:06.548Z,9.33
2022-11-09T18:58:34.205Z,9.34
2022-11-09T19:01:06.152Z,9.43
2022-11-09T19:03:33.416Z,9.37
2022-11-09T19:06:08.120Z,9.39
2022-11-09T19:08:53.765Z,9.26
2022-11-09T19:11:20.413Z,9.29
2022-11-09T19:13:47.739Z,9.25
2022-11-09T19:16:15.460Z,9.21
2022-11-09T19:18:44.674Z,9.32
2022-11-09T19:21:31.833Z,8.86
2022-11-09T19:23:58.627Z,9.14
2022-11-09T19:26:27.747Z,9.21
2022-11-09T19:28:54.396Z,9.19
2022-11-09T19:31:22.691Z,9.15
2022-11-09T19:33:49.347Z,9.19
2022-11-09T19:36:29.775Z,9.09
2022-11-09T19:38:57.867Z,9.01
2022-11-09T19:41:26.018Z,8.83
2022-11-09T19:43:55.625Z,8.85
2022-11-09T19:46:22.369Z,8.77
2022-11-09T19:48:49.328Z,8.72
2022-11-09T19:51:17.813Z,8.62
2022-11-09T19:53:52.733Z,8.55
2022-11-09T19:56:21.184Z,8.49
2022-11-09T19:58:54.309Z,8.36
2022-11-09T20:01:24.715Z,8.33
2022-11-09T20:03:56.867Z,8.20
2022-11-09T20:06:24.559Z,8.12
2022-11-09T20:08:52.238Z,8.09
2022-11-09T20:11:41.682Z,8.05
2022-11-09T20:14:09.559Z,7.95
2022-11-09T20:16:37.360Z,7.77
2022-11-09T20:19:05.930Z,7.80
2022-11-09T20:21:32.924Z,7.92
2022-11-09T20:23:59.567Z,7.73
2022-11-09T20:26:26.289Z,7.86
2022-11-09T20:28:54.799Z,7.92
2022-11-09T20:31:25.786Z,7.93
2022-11-09T20:33:56.613Z,7.90
2022-11-09T20:36:23.158Z,7.87
2022-11-09T20:38:49.939Z,7.86
2022-11-09T20:41:18.013Z,7.90
2022-11-09T20:43:47.230Z,7.83
2022-11-09T20:46:19.774Z,7.86
2022-11-09T20:48:54.220Z,7.89
2022-11-09T20:51:22.822Z,7.88
2022-11-09T20:53:50.846Z,7.92
2022-11-09T20:56:18.848Z,7.92
2022-11-09T20:58:45.834Z,7.86
2022-11-09T21:01:15.948Z,7.67
2022-11-09T21:03:43.496Z,7.61
2022-11-09T21:06:11.992Z,7.50
2022-11-09T21:08:39.094Z,7.61
2022-11-09T21:11:08.016Z,7.52
2022-11-09T21:13:34.835Z,7.58
2022-11-09T21:16:10.169Z,7.60
2022-11-09T21:18:36.900Z,7.45
2022-11-09T21:21:15.681Z,7.47
2022-11-09T21:24:01.285Z,7.39
2022-11-09T21:26:47.333Z,7.30
2022-11-09T21:29:41.449Z,7.40
2022-11-09T21:32:09.472Z,7.30
2022-11-09T21:34:37.297Z,7.30
2022-11-09T21:37:04.687Z,7.12
2022-11-09T21:39:31.434Z,7.24
2022-11-09T21:41:58.786Z,7.24
2022-11-09T21:44:27.776Z,7.23
2022-11-09T21:46:54.491Z,7.19
2022-11-09T21:49:21.751Z,7.10
2022-11-09T21:51:48.411Z,7.15
2022-11-09T21:54:15.134Z,7.10
2022-11-09T21:56:41.940Z,6.95
2022-11-09T21:59:08.652Z,6.99
2022-11-09T22:01:35.886Z,6.92
2022-11-09T22:04:02.736Z,6.95
2022-11-09T22:06:30.248Z,6.96
2022-11-09T22:08:57.002Z,6.93
2022-11-09T22:11:46.118Z,6.85
2022-11-09T22:14:33.555Z,6.59
2022-11-09T22:17:00.745Z,6.94
2022-11-09T22:19:47.181Z,6.96
2022-11-09T22:22:14.670Z,6.93
2022-11-09T22:24:41.379Z,6.95
2022-11-09T22:27:08.184Z,7.06
2022-11-09T22:29:34.894Z,7.07
2022-11-09T22:32:02.687Z,7.01
2022-11-09T22:34:29.387Z,6.99
2022-11-09T22:36:56.068Z,6.73
2022-11-09T22:39:22.796Z,6.96
2022-11-09T22:41:49.429Z,6.86
2022-11-09T22:44:16.164Z,6.42
2022-11-09T22:46:42.971Z,6.90
2022-11-09T22:49:10.444Z,6.93
2022-11-09T22:51:37.239Z,6.79
2022-11-09T22:54:04.099Z,6.75
2022-11-09T22:56:30.820Z,6.85
2022-11-09T22:58:57.459Z,6.80
2022-11-09T23:01:24.192Z,6.91
2022-11-09T23:03:50.990Z,6.77
2022-11-09T23:06:20.952Z,6.93
2022-11-09T23:08:48.250Z,6.78
2022-11-09T23:11:17.882Z,6.85
2022-11-09T23:13:48.328Z,6.72
2022-11-09T23:16:15.171Z,6.77
2022-11-09T23:18:54.102Z,6.78
2022-11-09T23:21:41.551Z,6.80
2022-11-09T23:24:30.981Z,6.76
2022-11-09T23:26:57.546Z,6.75
2022-11-09T23:29:24.220Z,6.62
2022-11-09T23:31:50.801Z,6.66
2022-11-09T23:34:17.690Z,6.62
2022-11-09T23:36:44.484Z,6.68
2022-11-09T23:39:11.259Z,6.63
2022-11-09T23:41:37.890Z,6.55
2022-11-09T23:44:04.541Z,6.50
2022-11-09T23:46:31.177Z,6.53
2022-11-09T23:48:57.897Z,6.50
2022-11-09T23:51:24.627Z,6.42
2022-11-09T23:53:51.378Z,6.44
2022-11-09T23:56:19.306Z,6.39
2022-11-09T23:58:51.463Z,6.31
